Time;durP1;ratioP1;P1;durP2;ratioP2;P2;SDS_P1;SDS_P2;PMS_P1;PMS_P2;Temp;Humidity;BMP_temperature;BMP_pressure;BME280_temperature;BME280_humidity;BME280_pressure;Samples;Min_cycle;Max_cycle;Signal;HPM_P1;HPM_P2
2023/04/30 00:01:03;;;;;;;9.40;4.60;;;;;;;;;;5100070;28;20040;-69
2023/04/30 00:03:29;;;;;;;12.02;4.15;;;;;;;;;;5093043;28;20036;-69
2023/04/30 00:05:55;;;;;;;9.48;4.70;;;;;;;;;;5103602;28;20497;-69
2023/04/30 00:08:21;;;;;;;9.25;5.22;;;;;;;;;;5096192;28;20051;-69
2023/04/30 00:10:48;;;;;;;9.98;3.95;;;;;;;;;;5091644;28;20390;-69
2023/04/30 00:13:14;;;;;;;7.78;4.18;;;;;;;;;;5100755;28;20038;-69
2023/04/30 00:15:40;;;;;;;9.52;4.57;;;;;;;;;;5101489;28;20032;-68
2023/04/30 00:18:06;;;;;;;7.30;4.32;;;;;;;;;;5094243;28;20070;-68
2023/04/30 00:20:34;;;;;;;11.93;4.10;;;;;;;;;;5097038;28;20070;-69
2023/04/30 00:23:00;;;;;;;9.15;3.80;;;;;;;;;;5092850;28;20409;-69
2023/04/30 00:25:26;;;;;;;9.70;4.45;;;;;;;;;;5098476;28;20047;-69
2023/04/30 00:27:52;;;;;;;6.90;3.40;;;;;;;;;;5097681;28;20048;-69
2023/04/30 00:30:18;;;;;;;7.13;3.85;;;;;;;;;;5095779;28;20044;-69
2023/04/30 00:32:44;;;;;;;6.70;3.47;;;;;;;;;;5094893;28;20032;-69
2023/04/30 00:35:11;;;;;;;7.03;3.92;;;;;;;;;;5109229;28;20073;-69
2023/04/30 00:37:37;;;;;;;7.70;3.00;;;;;;;;;;5096103;28;20031;-68
2023/04/30 00:40:03;;;;;;;6.95;3.60;;;;;;;;;;5090271;28;20494;-69
2023/04/30 00:42:29;;;;;;;8.95;4.05;;;;;;;;;;5106026;28;20074;-68
2023/04/30 00:44:56;;;;;;;12.25;4.45;;;;;;;;;;5099259;28;20597;-69
2023/04/30 00:47:22;;;;;;;11.35;4.15;;;;;;;;;;5091008;28;20303;-69
2023/04/30 00:49:48;;;;;;;7.47;4.22;;;;;;;;;;5100505;28;20093;-69
2023/04/30 00:52:14;;;;;;;9.52;4.32;;;;;;;;;;5103783;28;20434;-69
2023/04/30 00:54:40;;;;;;;9.00;4.40;;;;;;;;;;5100708;28;20134;-69
2023/04/30 00:57:07;;;;;;;9.77;4.50;;;;;;;;;;5095604;28;20042;-70
2023/04/30 00:59:34;;;;;;;12.77;4.10;;;;;;;;;;5098698;28;20289;-69
2023/04/30 01:02:00;;;;;;;9.45;4.25;;;;;;;;;;5092267;28;20046;-69
2023/04/30 01:04:27;;;;;;;7.60;4.85;;;;;;;;;;5104033;28;20044;-70
2023/04/30 01:06:53;;;;;;;8.68;4.53;;;;;;;;;;5099490;28;20064;-69
2023/04/30 01:09:19;;;;;;;8.35;4.50;;;;;;;;;;5090164;28;20044;-69
2023/04/30 01:12:09;;;;;;;10.27;5.15;;;;;;;;;;5095974;28;20039;-69
2023/04/30 01:14:41;;;;;;;9.65;4.75;;;;;;;;;;5091051;28;20624;-69
2023/04/30 01:17:28;;;;;;;6.10;3.75;;;;;;;;;;5092988;28;20569;-70
2023/04/30 01:19:55;;;;;;;10.45;4.65;;;;;;;;;;5093260;28;20459;-69
2023/04/30 01:22:24;;;;;;;8.30;3.75;;;;;;;;;;5096925;28;20028;-69
2023/04/30 01:25:14;;;;;;;8.93;4.07;;;;;;;;;;5100857;28;20071;-69
2023/04/30 01:27:59;;;;;;;12.10;4.32;;;;;;;;;;5091093;28;20051;-69
2023/04/30 01:30:25;;;;;;;8.07;4.22;;;;;;;;;;5097564;28;20036;-69
2023/04/30 01:32:51;;;;;;;9.52;4.80;;;;;;;;;;5096286;28;20048;-69
2023/04/30 01:35:17;;;;;;;12.15;4.32;;;;;;;;;;5097679;28;20423;-69
2023/04/30 01:37:44;;;;;;;10.13;4.95;;;;;;;;;;5093499;28;20036;-69
2023/04/30 01:40:10;;;;;;;12.13;4.20;;;;;;;;;;5088734;28;20036;-70
2023/04/30 01:42:42;;;;;;;12.85;4.18;;;;;;;;;;5099141;28;20035;-68
2023/04/30 01:45:11;;;;;;;8.68;3.70;;;;;;;;;;5094905;28;20028;-69
2023/04/30 01:47:45;;;;;;;10.23;4.32;;;;;;;;;;5105055;28;20036;-69
2023/04/30 01:50:20;;;;;;;9.13;4.30;;;;;;;;;;5108681;28;20042;-69
2023/04/30 01:52:57;;;;;;;10.93;3.75;;;;;;;;;;5094832;28;20060;-69
2023/04/30 01:55:27;;;;;;;8.52;4.20;;;;;;;;;;5089841;28;20047;-69
2023/04/30 01:57:57;;;;;;;9.18;4.38;;;;;;;;;;5091188;28;20039;-70
2023/04/30 02:00:25;;;;;;;10.15;3.40;;;;;;;;;;5100115;28;20071;-69
2023/04/30 02:02:51;;;;;;;9.70;3.78;;;;;;;;;;5095333;28;20036;-69
2023/04/30 02:05:17;;;;;;;10.43;3.67;;;;;;;;;;5107187;28;20043;-69
2023/04/30 02:07:46;;;;;;;6.85;3.60;;;;;;;;;;5099753;28;20036;-69
2023/04/30 02:10:12;;;;;;;6.72;3.15;;;;;;;;;;5094897;28;20040;-68
2023/04/30 02:12:39;;;;;;;9.77;4.18;;;;;;;;;;5091997;28;20036;-69
2023/04/30 02:15:05;;;;;;;11.82;3.40;;;;;;;;;;5094977;28;20070;-69
2023/04/30 02:17:31;;;;;;;12.23;4.53;;;;;;;;;;5103444;28;20032;-69
2023/04/30 02:19:58;;;;;;;6.95;3.35;;;;;;;;;;5094089;28;20317;-69
2023/04/30 02:22:24;;;;;;;8.70;3.97;;;;;;;;;;5092228;28;20036;-69
2023/04/30 02:24:54;;;;;;;7.00;3.03;;;;;;;;;;5097851;28;20504;-69
2023/04/30 02:27:20;;;;;;;9.15;3.38;;;;;;;;;;5088177;28;20040;-69
2023/04/30 02:29:46;;;;;;;8.35;3.75;;;;;;;;;;5099668;28;20068;-69
2023/04/30 02:32:13;;;;;;;6.97;3.97;;;;;;;;;;5091087;28;20390;-69
2023/04/30 02:34:40;;;;;;;8.05;3.70;;;;;;;;;;5090629;28;20050;-70
2023/04/30 02:37:06;;;;;;;10.32;3.65;;;;;;;;;;5095541;28;20042;-68
2023/04/30 02:39:32;;;;;;;9.70;3.47;;;;;;;;;;5101816;28;20043;-70
2023/04/30 02:41:59;;;;;;;10.27;3.72;;;;;;;;;;5094904;28;20040;-69
2023/04/30 02:44:25;;;;;;;15.13;4.72;;;;;;;;;;5094361;28;20127;-69
2023/04/30 02:46:51;;;;;;;8.93;3.70;;;;;;;;;;5102095;28;20473;-69
2023/04/30 02:49:17;;;;;;;7.40;3.10;;;;;;;;;;5099315;28;20076;-69
2023/04/30 02:51:43;;;;;;;10.65;4.53;;;;;;;;;;5105497;28;20075;-69
2023/04/30 02:54:10;;;;;;;10.15;3.92;;;;;;;;;;5102345;28;20043;-69
2023/04/30 02:56:37;;;;;;;7.75;3.75;;;;;;;;;;5101938;28;20044;-69
2023/04/30 02:59:03;;;;;;;7.85;3.95;;;;;;;;;;5100837;28;20097;-70
2023/04/30 03:01:30;;;;;;;8.57;3.40;;;;;;;;;;5092059;28;20040;-69
2023/04/30 03:03:57;;;;;;;6.63;3.35;;;;;;;;;;5103402;28;20097;-70
2023/04/30 03:06:23;;;;;;;8.68;3.55;;;;;;;;;;5102132;28;20040;-69
2023/04/30 03:08:49;;;;;;;8.68;4.18;;;;;;;;;;5073344;28;20514;-69
2023/04/30 03:11:15;;;;;;;11.80;3.30;;;;;;;;;;5091829;28;20039;-69
2023/04/30 03:13:42;;;;;;;8.95;3.63;;;;;;;;;;5097241;28;20036;-70
2023/04/30 03:16:08;;;;;;;8.15;3.58;;;;;;;;;;5093647;28;20036;-69
2023/04/30 03:18:35;;;;;;;6.00;3.00;;;;;;;;;;5092520;28;20063;-68
2023/04/30 03:21:01;;;;;;;8.85;4.00;;;;;;;;;;5104533;28;20044;-68
2023/04/30 03:23:28;;;;;;;5.70;2.95;;;;;;;;;;5094985;28;20043;-70
2023/04/30 03:25:54;;;;;;;7.28;3.33;;;;;;;;;;5107531;28;20063;-68
2023/04/30 03:28:20;;;;;;;6.20;3.40;;;;;;;;;;5080816;28;20048;-70
2023/04/30 03:30:46;;;;;;;6.03;3.47;;;;;;;;;;5094845;28;20414;-69
2023/04/30 03:33:12;;;;;;;8.25;3.63;;;;;;;;;;5091030;28;20036;-69
2023/04/30 03:35:38;;;;;;;5.47;3.40;;;;;;;;;;5103745;28;20042;-69
2023/04/30 03:38:04;;;;;;;7.10;3.83;;;;;;;;;;5094775;28;20119;-69
2023/04/30 03:40:31;;;;;;;8.88;3.13;;;;;;;;;;5096600;28;20093;-70
2023/04/30 03:42:57;;;;;;;6.88;3.58;;;;;;;;;;5099214;28;20044;-69
2023/04/30 03:45:23;;;;;;;12.85;4.35;;;;;;;;;;5104160;28;20091;-67
2023/04/30 03:47:49;;;;;;;10.90;4.43;;;;;;;;;;5100116;28;20063;-68
2023/04/30 03:50:17;;;;;;;10.05;4.40;;;;;;;;;;5102362;28;20413;-69
2023/04/30 03:52:43;;;;;;;8.25;3.33;;;;;;;;;;5102075;28;20071;-69
2023/04/30 03:55:09;;;;;;;10.40;3.67;;;;;;;;;;5095880;28;20079;-69
2023/04/30 03:57:36;;;;;;;10.98;4.53;;;;;;;;;;5096481;28;20050;-69
2023/04/30 04:00:06;;;;;;;15.85;4.50;;;;;;;;;;5104027;28;20039;-70
2023/04/30 04:02:33;;;;;;;7.05;3.90;;;;;;;;;;5095804;28;20039;-68
2023/04/30 04:04:59;;;;;;;9.35;4.40;;;;;;;;;;5108436;28;20032;-69
2023/04/30 04:07:25;;;;;;;8.60;4.30;;;;;;;;;;5108271;28;20049;-69
2023/04/30 04:09:51;;;;;;;11.43;4.50;;;;;;;;;;5098085;28;20035;-69
2023/04/30 04:12:17;;;;;;;10.25;5.07;;;;;;;;;;5090796;28;20032;-69
2023/04/30 04:14:44;;;;;;;9.13;4.85;;;;;;;;;;5094074;28;20063;-70
2023/04/30 04:17:10;;;;;;;8.18;4.63;;;;;;;;;;5104458;28;20040;-69
2023/04/30 04:19:36;;;;;;;9.55;3.97;;;;;;;;;;5096669;28;20036;-69
2023/04/30 04:22:03;;;;;;;13.60;3.88;;;;;;;;;;5101360;28;20055;-69
2023/04/30 04:24:29;;;;;;;9.75;4.13;;;;;;;;;;5097023;28;20443;-69
2023/04/30 04:26:55;;;;;;;11.00;3.85;;;;;;;;;;5103632;28;20544;-70
2023/04/30 04:29:22;;;;;;;15.63;4.80;;;;;;;;;;5108680;28;20512;-69
2023/04/30 04:31:49;;;;;;;12.55;3.95;;;;;;;;;;5100726;28;20550;-68
2023/04/30 04:34:16;;;;;;;7.95;3.30;;;;;;;;;;5095388;28;20560;-69
2023/04/30 04:36:42;;;;;;;7.50;3.70;;;;;;;;;;5105914;28;20035;-69
2023/04/30 04:39:08;;;;;;;8.48;3.60;;;;;;;;;;5089533;28;20081;-69
2023/04/30 04:41:35;;;;;;;10.88;4.22;;;;;;;;;;5093560;28;20054;-71
2023/04/30 04:44:02;;;;;;;7.20;3.58;;;;;;;;;;5093949;28;20105;-70
2023/04/30 04:46:28;;;;;;;14.00;3.95;;;;;;;;;;5107848;28;20462;-71
2023/04/30 04:48:54;;;;;;;8.30;3.78;;;;;;;;;;5104630;28;20047;-70
2023/04/30 04:51:20;;;;;;;9.55;3.88;;;;;;;;;;5102093;28;20070;-70
2023/04/30 04:53:47;;;;;;;8.30;4.20;;;;;;;;;;5103086;28;20075;-69
2023/04/30 04:56:13;;;;;;;8.18;3.60;;;;;;;;;;5103429;28;20152;-69
2023/04/30 04:58:39;;;;;;;7.20;3.20;;;;;;;;;;5100617;28;20396;-70
2023/04/30 05:01:05;;;;;;;6.20;3.42;;;;;;;;;;5091225;28;20048;-70
2023/04/30 05:03:32;;;;;;;5.35;3.13;;;;;;;;;;5092274;28;20074;-69
2023/04/30 05:05:58;;;;;;;8.60;3.67;;;;;;;;;;5100702;28;20040;-70
2023/04/30 05:08:25;;;;;;;8.00;3.30;;;;;;;;;;5094500;28;20122;-69
2023/04/30 05:10:51;;;;;;;6.95;3.90;;;;;;;;;;5095827;28;20663;-69
2023/04/30 05:13:17;;;;;;;12.80;4.18;;;;;;;;;;5098396;28;20051;-69
2023/04/30 05:15:43;;;;;;;7.85;3.47;;;;;;;;;;5098414;28;20254;-70
2023/04/30 05:18:09;;;;;;;5.78;3.45;;;;;;;;;;5090027;28;20036;-70
2023/04/30 05:20:35;;;;;;;7.03;3.40;;;;;;;;;;5098029;28;20065;-69
2023/04/30 05:23:02;;;;;;;8.40;3.70;;;;;;;;;;5095473;28;20047;-69
2023/04/30 05:25:28;;;;;;;6.18;4.00;;;;;;;;;;5102800;28;20124;-70
2023/04/30 05:27:55;;;;;;;6.55;3.90;;;;;;;;;;5102669;28;20050;-69
2023/04/30 05:30:21;;;;;;;10.80;3.30;;;;;;;;;;5093305;28;20397;-71
2023/04/30 05:32:50;;;;;;;5.95;3.83;;;;;;;;;;5098954;28;20036;-69
2023/04/30 05:35:17;;;;;;;10.05;3.42;;;;;;;;;;5101128;28;20039;-69
2023/04/30 05:37:43;;;;;;;6.60;3.20;;;;;;;;;;5090251;28;20035;-69
2023/04/30 05:40:10;;;;;;;12.07;3.15;;;;;;;;;;5090440;28;20039;-69
2023/04/30 05:42:37;;;;;;;7.78;3.55;;;;;;;;;;5100879;28;20103;-69
2023/04/30 05:45:03;;;;;;;8.13;3.63;;;;;;;;;;5105928;28;20091;-69
2023/04/30 05:47:30;;;;;;;15.27;3.65;;;;;;;;;;5092573;28;20514;-70
2023/04/30 05:49:56;;;;;;;10.02;3.72;;;;;;;;;;5100778;28;20043;-70
2023/04/30 05:52:23;;;;;;;7.38;3.40;;;;;;;;;;5100741;28;20047;-70
2023/04/30 05:54:49;;;;;;;9.20;3.80;;;;;;;;;;5091072;28;20048;-69
2023/04/30 05:57:15;;;;;;;4.32;2.72;;;;;;;;;;5094705;28;20055;-68
2023/04/30 05:59:41;;;;;;;9.77;3.78;;;;;;;;;;5104828;28;20043;-69
2023/04/30 06:02:08;;;;;;;12.18;4.57;;;;;;;;;;5095144;28;20123;-68
2023/04/30 06:04:34;;;;;;;7.55;3.83;;;;;;;;;;5092389;28;20039;-70
2023/04/30 06:07:00;;;;;;;6.40;3.88;;;;;;;;;;5105983;28;20123;-69
2023/04/30 06:09:26;;;;;;;7.75;3.45;;;;;;;;;;5098163;28;20401;-69
2023/04/30 06:11:54;;;;;;;8.00;3.78;;;;;;;;;;5092627;28;20044;-70
2023/04/30 06:14:23;;;;;;;9.35;4.07;;;;;;;;;;5090559;28;20044;-68
2023/04/30 06:16:50;;;;;;;6.25;3.60;;;;;;;;;;5091703;28;20035;-68
2023/04/30 06:19:16;;;;;;;8.70;3.72;;;;;;;;;;5094664;28;20039;-69
2023/04/30 06:21:42;;;;;;;6.25;4.10;;;;;;;;;;5091560;28;20147;-68
2023/04/30 06:24:09;;;;;;;8.02;3.88;;;;;;;;;;5101157;28;20036;-69
2023/04/30 06:26:35;;;;;;;7.28;4.15;;;;;;;;;;5102263;28;20052;-69
2023/04/30 06:29:01;;;;;;;11.48;4.25;;;;;;;;;;5105541;28;20052;-69
2023/04/30 06:31:27;;;;;;;6.90;3.65;;;;;;;;;;5093658;28;20040;-68
2023/04/30 06:33:54;;;;;;;9.43;3.85;;;;;;;;;;5097530;28;20500;-69
2023/04/30 06:36:20;;;;;;;6.45;3.30;;;;;;;;;;5093082;28;20039;-68
2023/04/30 06:38:46;;;;;;;8.80;4.40;;;;;;;;;;5095973;28;20127;-68
2023/04/30 06:41:13;;;;;;;7.25;4.57;;;;;;;;;;5098372;28;20044;-69
2023/04/30 06:43:39;;;;;;;8.45;3.58;;;;;;;;;;5096710;28;20498;-69
2023/04/30 06:46:05;;;;;;;8.32;4.68;;;;;;;;;;5095338;28;20036;-69
2023/04/30 06:48:32;;;;;;;6.28;4.38;;;;;;;;;;5107681;28;20127;-69
2023/04/30 06:50:58;;;;;;;10.20;4.00;;;;;;;;;;5104553;28;20605;-69
2023/04/30 06:53:25;;;;;;;7.03;3.60;;;;;;;;;;5106731;28;20063;-70
2023/04/30 06:55:51;;;;;;;11.30;4.15;;;;;;;;;;5102718;28;20068;-70
2023/04/30 06:58:18;;;;;;;11.52;3.78;;;;;;;;;;5095556;28;20047;-70
2023/04/30 07:00:45;;;;;;;7.03;4.00;;;;;;;;;;5092658;28;20044;-70
2023/04/30 07:03:11;;;;;;;6.55;3.25;;;;;;;;;;5104177;28;20408;-70
2023/04/30 07:05:37;;;;;;;6.30;2.60;;;;;;;;;;5101939;28;20163;-70
2023/04/30 07:08:03;;;;;;;9.75;3.83;;;;;;;;;;5096440;28;20040;-70
2023/04/30 07:10:30;;;;;;;8.32;3.42;;;;;;;;;;5091748;28;20044;-70
2023/04/30 07:12:56;;;;;;;6.75;3.35;;;;;;;;;;5095654;28;20078;-69
2023/04/30 07:15:23;;;;;;;5.30;3.60;;;;;;;;;;5093492;28;20362;-69
2023/04/30 07:17:49;;;;;;;7.30;3.40;;;;;;;;;;5097892;27;20044;-70
2023/04/30 07:20:15;;;;;;;8.98;4.25;;;;;;;;;;5098548;28;20038;-69
2023/04/30 07:22:45;;;;;;;4.22;3.42;;;;;;;;;;5104447;28;20078;-70
2023/04/30 07:25:14;;;;;;;13.52;3.88;;;;;;;;;;5106688;28;20093;-68
2023/04/30 07:27:41;;;;;;;11.70;6.13;;;;;;;;;;5095672;28;20044;-69
2023/04/30 07:30:10;;;;;;;9.02;4.15;;;;;;;;;;5092927;28;20040;-69
2023/04/30 07:32:39;;;;;;;9.23;3.42;;;;;;;;;;5092215;28;20079;-69
2023/04/30 07:35:06;;;;;;;7.72;3.45;;;;;;;;;;5100199;28;20489;-69
2023/04/30 07:37:32;;;;;;;6.60;3.70;;;;;;;;;;5100986;28;20085;-69
2023/04/30 07:39:58;;;;;;;9.48;3.90;;;;;;;;;;5093008;28;20047;-69
2023/04/30 07:42:24;;;;;;;6.80;3.05;;;;;;;;;;5102644;28;20051;-69
2023/04/30 07:44:51;;;;;;;7.28;4.38;;;;;;;;;;5093404;28;20085;-69
2023/04/30 07:47:18;;;;;;;8.13;4.28;;;;;;;;;;5101701;28;20047;-69
2023/04/30 07:49:46;;;;;;;7.72;3.38;;;;;;;;;;5091023;28;20036;-67
2023/04/30 07:52:12;;;;;;;8.35;4.70;;;;;;;;;;5102571;28;20036;-69
2023/04/30 07:54:39;;;;;;;11.25;4.07;;;;;;;;;;5078374;28;20052;-69
2023/04/30 07:57:06;;;;;;;12.85;4.10;;;;;;;;;;5073743;28;20486;-70
2023/04/30 07:59:32;;;;;;;11.32;4.45;;;;;;;;;;5073053;28;20040;-69
2023/04/30 08:01:58;;;;;;;14.60;5.53;;;;;;;;;;5073136;28;20123;-69
2023/04/30 08:04:25;;;;;;;13.90;4.88;;;;;;;;;;5076026;28;20071;-69
2023/04/30 08:06:51;;;;;;;11.50;3.90;;;;;;;;;;5085797;28;20039;-69
2023/04/30 08:09:17;;;;;;;8.07;4.38;;;;;;;;;;5076579;28;20492;-69
2023/04/30 08:11:43;;;;;;;13.00;4.43;;;;;;;;;;5075164;28;20117;-69
2023/04/30 08:14:09;;;;;;;10.30;4.28;;;;;;;;;;5071777;28;20159;-69
2023/04/30 08:16:35;;;;;;;8.23;4.03;;;;;;;;;;5074758;28;20094;-69
2023/04/30 08:19:02;;;;;;;7.75;3.83;;;;;;;;;;5076470;28;20048;-69
2023/04/30 08:21:29;;;;;;;10.65;4.28;;;;;;;;;;5075102;28;20048;-69
2023/04/30 08:23:56;;;;;;;8.27;3.70;;;;;;;;;;5079124;28;20048;-69
2023/04/30 08:26:22;;;;;;;10.50;4.00;;;;;;;;;;5087006;28;20040;-69
2023/04/30 08:28:48;;;;;;;10.48;3.38;;;;;;;;;;5075026;28;20119;-69
2023/04/30 08:31:14;;;;;;;10.57;4.00;;;;;;;;;;5081277;28;20036;-69
2023/04/30 08:33:41;;;;;;;5.90;3.50;;;;;;;;;;5073781;28;20521;-69
2023/04/30 08:36:07;;;;;;;8.98;4.35;;;9.60;99.90;;;;;;5070758;28;20090;-70
2023/04/30 08:38:32;;;;;;;6.80;3.53;;;10.60;99.90;;;;;;5074956;28;20036;-69
2023/04/30 08:41:25;;;;;;;8.43;3.85;;;10.50;99.90;;;;;;5083809;28;20059;-69
2023/04/30 08:43:52;;;;;;;6.57;3.70;;;10.50;99.90;;;;;;5085065;28;20052;-70
2023/04/30 08:46:19;;;;;;;10.38;4.53;;;10.50;99.90;;;;;;5072602;28;20270;-69
2023/04/30 08:48:47;;;;;;;11.35;4.20;;;10.50;99.90;;;;;;5071861;28;20040;-69
2023/04/30 08:51:14;;;;;;;8.10;4.22;;;10.50;99.90;;;;;;5081751;28;20375;-69
2023/04/30 08:53:43;;;;;;;10.20;4.03;;;10.50;99.90;;;;;;5078487;28;20176;-69
2023/04/30 08:56:10;;;;;;;8.23;4.07;;;10.50;99.90;;;;;;5094689;28;20394;-69
2023/04/30 08:58:36;;;;;;;8.40;4.32;;;10.50;99.90;;;;;;5097931;28;20442;-69
2023/04/30 09:01:04;;;;;;;7.53;4.05;;;10.60;99.90;;;;;;5091512;28;20044;-69
2023/04/30 09:03:30;;;;;;;4.07;2.80;;;10.60;99.90;;;;;;5091741;28;20120;-69
2023/04/30 09:05:56;;;;;;;6.65;3.20;;;10.60;99.90;;;;;;5099507;28;20127;-69
2023/04/30 09:08:42;;;;;;;10.65;4.07;;;10.60;99.90;;;;;;5100347;28;20039;-69
2023/04/30 09:11:24;;;;;;;11.63;3.92;;;10.70;99.90;;;;;;5102990;28;20405;-69
2023/04/30 09:13:52;;;;;;;5.90;3.47;;;10.70;99.90;;;;;;5102994;28;20038;-69
2023/04/30 09:16:18;;;;;;;10.80;3.90;;;10.70;99.90;;;;;;5097279;28;20028;-69
2023/04/30 09:18:45;;;;;;;10.00;4.20;;;10.70;99.90;;;;;;5098704;28;20042;-69
2023/04/30 09:21:11;;;;;;;10.30;4.45;;;10.80;99.90;;;;;;5099633;28;20055;-68
2023/04/30 09:23:57;;;;;;;6.05;3.35;;;10.80;99.90;;;;;;5093949;28;20037;-68
2023/04/30 09:26:27;;;;;;;18.88;5.22;;;10.80;99.90;;;;;;5106157;28;20451;-68
2023/04/30 09:28:57;;;;;;;10.35;3.88;;;10.80;99.90;;;;;;5095844;28;20094;-68
2023/04/30 09:31:24;;;;;;;7.40;3.53;;;10.90;99.90;;;;;;5094487;28;20036;-68
2023/04/30 09:33:51;;;;;;;10.75;3.90;;;11.00;99.90;;;;;;5089468;28;20036;-68
2023/04/30 09:36:17;;;;;;;8.57;4.05;;;11.00;99.90;;;;;;5090561;28;20036;-70
2023/04/30 09:38:43;;;;;;;9.60;3.90;;;11.10;99.90;;;;;;5094098;28;20115;-68
2023/04/30 09:41:28;;;;;;;12.63;4.00;;;11.10;99.90;;;;;;5093011;28;20663;-69
2023/04/30 09:43:54;;;;;;;7.78;3.67;;;11.10;99.90;;;;;;5104871;28;20046;-69
2023/04/30 09:46:21;;;;;;;6.88;3.65;;;11.10;99.90;;;;;;5097151;28;20040;-70
2023/04/30 09:48:57;;;;;;;7.13;3.25;;;11.20;99.90;;;;;;5090320;28;20072;-69
2023/04/30 09:51:23;;;;;;;9.10;4.00;;;11.20;99.90;;;;;;5095748;28;20040;-69
2023/04/30 09:53:50;;;;;;;4.97;4.28;;;;;;;;;;5096319;28;20048;-69
2023/04/30 09:56:20;;;;;;;10.98;3.33;;;;;;;;;;5091676;28;20493;-69
2023/04/30 09:58:55;;;;;;;7.65;3.28;;;11.20;99.90;;;;;;5101925;28;20068;-70
2023/04/30 10:01:26;;;;;;;6.20;3.95;;;11.40;99.90;;;;;;5101151;28;20092;-69
2023/04/30 10:03:52;;;;;;;6.38;3.95;;;11.50;99.90;;;;;;5089316;28;20115;-70
2023/04/30 10:06:20;;;;;;;9.70;4.97;;;11.60;99.90;;;;;;5090751;28;20159;-69
2023/04/30 10:08:48;;;;;;;8.20;3.47;;;;;;;;;;5099432;28;20193;-69
2023/04/30 10:11:21;;;;;;;7.43;3.40;;;;;;;;;;5101740;28;20066;-69
2023/04/30 10:13:47;;;;;;;;;;;;;;;;;;5096079;28;20107;-70
2023/04/30 10:16:32;;;;;;;8.13;3.55;;;;;;;;;;5094088;28;20007;-69
2023/04/30 10:18:59;;;;;;;7.05;3.70;;;;;;;;;;5101567;28;20040;-69
2023/04/30 10:21:26;;;;;;;5.60;3.47;;;;;;;;;;5095996;28;20040;-69
2023/04/30 10:23:53;;;;;;;7.03;2.72;;;;;;;;;;5094244;28;20040;-69
2023/04/30 10:26:19;;;;;;;10.18;3.33;;;;;;;;;;5099326;28;20406;-69
2023/04/30 10:28:49;;;;;;;4.82;3.00;;;;;;;;;;5107573;28;20568;-70
2023/04/30 10:31:16;;;;;;;10.30;5.15;;;;;;;;;;5105665;28;20179;-69
2023/04/30 10:33:48;;;;;;;4.35;2.53;;;;;;;;;;5098897;28;20059;-70
2023/04/30 10:36:21;;;;;;;7.93;3.08;;;;;;;;;;5079552;28;20040;-70
2023/04/30 10:38:48;;;;;;;11.60;3.42;;;;;;;;;;5092817;28;20044;-70
2023/04/30 10:41:14;;;;;;;5.60;3.00;;;;;;;;;;5100806;28;20397;-70
2023/04/30 10:43:40;;;;;;;4.35;2.80;;;;;;;;;;5096913;28;20039;-70
2023/04/30 10:46:08;;;;;;;7.40;3.42;;;;;;;;;;5095643;28;20496;-69
2023/04/30 10:48:34;;;;;;;5.13;3.17;;;;;;;;;;5104327;28;20122;-69
2023/04/30 10:51:01;;;;;;;7.38;3.00;;;;;;;;;;5103476;28;20027;-69
2023/04/30 10:53:30;;;;;;;4.05;3.10;;;;;;;;;;5105093;28;20126;-69
2023/04/30 10:56:07;;;;;;;11.40;3.50;;;;;;;;;;5097515;28;20044;-69
2023/04/30 10:58:33;;;;;;;3.60;2.03;;;;;;;;;;5098998;28;20127;-69
2023/04/30 11:01:03;;;;;;;8.68;2.25;;;;;;;;;;5094426;28;20040;-69
2023/04/30 11:03:30;;;;;;;5.45;2.95;;;;;;;;;;5107711;28;20380;-70
2023/04/30 11:05:57;;;;;;;7.60;2.55;;;;;;;;;;5099328;28;20781;-69
2023/04/30 11:08:35;;;;;;;5.53;2.70;;;;;;;;;;5097151;28;20083;-69
2023/04/30 11:11:03;;;;;;;3.80;2.15;;;;;;;;;;5101306;28;20040;-69
2023/04/30 11:13:38;;;;;;;6.20;2.45;;;;;;;;;;5095673;28;20067;-69
2023/04/30 11:16:04;;;;;;;5.32;2.47;;;;;;;;;;5096846;28;20047;-69
2023/04/30 11:18:31;;;;;;;4.80;2.75;;;;;;;;;;5092403;28;20046;-69
2023/04/30 11:20:57;;;;;;;4.57;2.50;;;;;;;;;;5103225;28;20043;-70
2023/04/30 11:23:25;;;;;;;5.30;2.58;;;11.60;99.90;;;;;;5094999;28;20035;-70
2023/04/30 11:25:54;;;;;;;3.78;2.15;;;13.60;99.90;;;;;;5094702;28;20083;-70
2023/04/30 11:28:24;;;;;;;4.20;2.80;;;13.60;99.90;;;;;;5097331;28;20048;-69
2023/04/30 11:30:52;;;;;;;4.95;2.17;;;13.70;99.90;;;;;;5103241;28;20505;-70
2023/04/30 11:33:18;;;;;;;6.38;2.58;;;13.70;99.90;;;;;;5099120;28;20036;-69
2023/04/30 11:35:44;;;;;;;3.60;2.70;;;13.80;99.90;;;;;;5104876;28;20100;-69
2023/04/30 11:38:12;;;;;;;3.90;2.33;;;13.80;99.90;;;;;;5098758;28;20478;-70
2023/04/30 11:40:39;;;;;;;5.90;3.10;;;13.90;99.90;;;;;;5095472;28;20040;-70
2023/04/30 11:43:05;;;;;;;4.50;2.40;;;14.00;99.90;;;;;;5096766;28;20420;-70
2023/04/30 11:45:30;;;;;;;5.53;2.28;;;14.10;99.90;;;;;;5104427;28;20117;-70
2023/04/30 11:47:56;;;;;;;3.90;2.20;;;14.10;99.90;;;;;;5095505;28;20078;-69
2023/04/30 11:50:28;;;;;;;8.05;2.47;;;14.20;99.90;;;;;;5093012;28;20051;-69
2023/04/30 11:52:55;;;;;;;4.15;2.25;;;14.20;99.90;;;;;;5107583;28;20155;-69
2023/04/30 11:55:23;;;;;;;4.13;1.98;;;14.20;99.90;;;;;;5094314;28;20278;-69
2023/04/30 11:57:52;;;;;;;3.47;2.00;;;14.40;99.90;;;;;;5093508;28;20048;-69
2023/04/30 12:00:25;;;;;;;5.43;2.35;;;14.40;99.90;;;;;;5100909;28;20096;-70
2023/04/30 12:02:52;;;;;;;3.80;1.92;;;14.40;99.90;;;;;;5100681;28;20036;-68
2023/04/30 12:05:23;;;;;;;2.92;1.80;;;14.50;99.90;;;;;;5095502;28;20032;-70
2023/04/30 12:08:10;;;;;;;4.55;1.90;;;14.60;99.90;;;;;;5100266;28;20492;-70
2023/04/30 12:10:35;;;;;;;3.10;1.73;;;14.60;99.90;;;;;;5104126;28;20402;-70
2023/04/30 12:13:02;;;;;;;3.05;1.65;;;14.70;99.90;;;;;;5092658;28;20032;-70
2023/04/30 12:15:28;;;;;;;3.55;2.13;;;;;;;;;;5091709;28;20107;-70
2023/04/30 12:17:55;;;;;;;2.80;1.50;;;;;;;;;;5099198;28;20131;-70
2023/04/30 12:20:22;;;;;;;1.83;1.00;;;;;;;;;;5098949;28;20059;-70
2023/04/30 12:22:49;;;;;;;2.92;1.63;;;;;;;;;;5096477;28;20110;-70
2023/04/30 12:25:16;;;;;;;3.13;1.70;;;;;;;;;;5097673;28;20035;-69
2023/04/30 12:27:46;;;;;;;2.88;1.83;;;;;;;;;;5074507;28;20489;-70
2023/04/30 12:30:12;;;;;;;3.53;1.85;;;;;;;;;;5102623;28;20032;-70
2023/04/30 12:32:40;;;;;;;2.85;1.50;;;;;;;;;;5099149;28;20481;-69
2023/04/30 12:35:06;;;;;;;4.45;2.05;;;;;;;;;;5089540;28;20036;-69
2023/04/30 12:37:32;;;;;;;6.00;2.20;;;;;;;;;;5101406;28;20047;-70
2023/04/30 12:39:59;;;;;;;3.53;1.95;;;;;;;;;;5101283;28;20035;-70
2023/04/30 12:42:25;;;;;;;3.40;1.63;;;;;;;;;;5099901;28;20043;-71
2023/04/30 12:44:51;;;;;;;2.80;1.60;;;;;;;;;;5092445;28;20435;-72
2023/04/30 12:47:18;;;;;;;3.08;1.80;;;;;;;;;;5094747;28;20051;-70
2023/04/30 12:49:47;;;;;;;4.68;2.33;;;;;;;;;;5098815;28;20121;-69
2023/04/30 12:52:14;;;;;;;5.82;2.28;;;;;;;;;;5093317;28;20396;-70
2023/04/30 12:54:40;;;;;;;4.57;1.92;;;;;;;;;;5098042;28;20059;-70
2023/04/30 12:57:11;;;;;;;4.28;2.28;;;;;;;;;;5099680;28;20393;-70
2023/04/30 12:59:59;;;;;;;4.35;2.13;;;;;;;;;;5096849;28;20039;-70
2023/04/30 13:02:30;;;;;;;4.45;2.30;;;;;;;;;;5095919;28;20054;-70
2023/04/30 13:04:57;;;;;;;6.63;2.10;;;;;;;;;;5097104;28;20040;-70
2023/04/30 13:07:23;;;;;;;3.22;1.98;;;;;;;;;;5096074;28;20050;-70
2023/04/30 13:09:49;;;;;;;4.60;2.15;;;;;;;;;;5093402;28;20404;-69
2023/04/30 13:12:15;;;;;;;3.42;1.70;;;;;;;;;;5096740;28;20040;-68
2023/04/30 13:14:42;;;;;;;3.97;2.00;;;;;;;;;;5094830;28;20032;-69
2023/04/30 13:17:11;;;;;;;5.85;1.80;;;;;;;;;;5092092;28;20036;-69
2023/04/30 13:19:37;;;;;;;3.72;2.03;;;;;;;;;;5097067;28;20046;-69
2023/04/30 13:22:03;;;;;;;3.50;2.15;;;;;;;;;;5103897;28;20123;-69
2023/04/30 13:24:30;;;;;;;7.00;2.33;;;;;;;;;;5096758;28;20486;-69
2023/04/30 13:26:58;;;;;;;4.90;1.98;;;;;;;;;;5086927;28;20101;-69
2023/04/30 13:29:24;;;;;;;3.30;1.85;;;;;;;;;;5099708;28;20051;-69
2023/04/30 13:31:50;;;;;;;5.35;2.35;;;;;;;;;;5094979;28;20102;-69
2023/04/30 13:34:16;;;;;;;2.58;1.75;;;;;;;;;;5104479;28;20446;-69
2023/04/30 13:36:42;;;;;;;3.78;1.83;;;;;;;;;;5099225;28;20506;-69
2023/04/30 13:39:08;;;;;;;7.70;1.88;;;;;;;;;;5096140;28;20486;-68
2023/04/30 13:41:35;;;;;;;5.78;1.70;;;;;;;;;;5095287;28;20039;-70
2023/04/30 13:44:01;;;;;;;4.15;1.70;;;;;;;;;;5102611;28;20080;-69
2023/04/30 13:46:27;;;;;;;3.13;2.05;;;;;;;;;;5093106;28;20078;-69
2023/04/30 13:48:53;;;;;;;3.33;1.65;;;;;;;;;;5094112;28;20036;-68
2023/04/30 13:51:19;;;;;;;3.58;1.77;;;;;;;;;;5097779;28;20063;-69
2023/04/30 13:53:45;;;;;;;4.70;1.98;;;;;;;;;;5096846;28;20100;-69
2023/04/30 13:56:14;;;;;;;6.40;2.50;;;;;;;;;;5092009;28;20040;-69
2023/04/30 13:58:40;;;;;;;6.22;2.55;;;;;;;;;;5102003;28;20036;-69
2023/04/30 14:01:07;;;;;;;3.58;2.03;;;;;;;;;;5100386;28;20061;-69
2023/04/30 14:03:33;;;;;;;5.90;2.15;;;;;;;;;;5091440;28;20123;-67
2023/04/30 14:05:59;;;;;;;6.93;2.45;;;;;;;;;;5092523;28;20131;-69
2023/04/30 14:08:25;;;;;;;5.55;2.13;;;;;;;;;;5091894;28;20413;-68
2023/04/30 14:10:51;;;;;;;2.75;1.98;;;;;;;;;;5098858;28;20497;-69
2023/04/30 14:13:18;;;;;;;2.92;1.90;;;;;;;;;;5091109;28;20110;-69
2023/04/30 14:15:45;;;;;;;5.20;2.47;;;;;;;;;;5088131;28;20378;-69
2023/04/30 14:18:12;;;;;;;3.63;1.55;;;;;;;;;;5097412;28;20062;-69
2023/04/30 14:20:38;;;;;;;2.53;1.73;;;;;;;;;;5090546;28;20040;-69